sensor_id;sensor_type;location;lat;lon;timestamp;pressure;altitude;pressure_sealevel;temperature;humidity
73748;BME280;62056;52.130;5.428;2023-03-14T00:00:18;99064.34;;;10.41;73.06
73748;BME280;62056;52.130;5.428;2023-03-14T00:02:45;99069.22;;;10.39;73.23
73748;BME280;62056;52.130;5.428;2023-03-14T00:05:12;99082.03;;;10.37;72.72
73748;BME280;62056;52.130;5.428;2023-03-14T00:07:39;99072.53;;;10.36;72.78
73748;BME280;62056;52.130;5.428;2023-03-14T00:10:09;99072.09;;;10.34;72.85
73748;BME280;62056;52.130;5.428;2023-03-14T00:12:36;99081.13;;;10.33;73.09
73748;BME280;62056;52.130;5.428;2023-03-14T00:15:03;99081.50;;;10.31;74.70
73748;BME280;62056;52.130;5.428;2023-03-14T00:17:30;99077.56;;;10.29;72.73
73748;BME280;62056;52.130;5.428;2023-03-14T00:19:57;99074.13;;;10.28;73.55
73748;BME280;62056;52.130;5.428;2023-03-14T00:22:31;99066.63;;;10.30;73.81
73748;BME280;62056;52.130;5.428;2023-03-14T00:24:57;99060.56;;;10.30;72.72
73748;BME280;62056;52.130;5.428;2023-03-14T00:27:24;99067.75;;;10.29;73.74
73748;BME280;62056;52.130;5.428;2023-03-14T00:29:51;99064.75;;;10.31;73.60
73748;BME280;62056;52.130;5.428;2023-03-14T00:32:17;99060.22;;;10.31;73.79
73748;BME280;62056;52.130;5.428;2023-03-14T00:34:44;99072.09;;;10.34;74.34
73748;BME280;62056;52.130;5.428;2023-03-14T00:37:11;99063.00;;;10.35;74.00
73748;BME280;62056;52.130;5.428;2023-03-14T00:39:37;99073.31;;;10.37;75.35
73748;BME280;62056;52.130;5.428;2023-03-14T00:42:04;99077.84;;;10.36;73.79
73748;BME280;62056;52.130;5.428;2023-03-14T00:44:30;99081.28;;;10.37;75.06
73748;BME280;62056;52.130;5.428;2023-03-14T00:46:58;99085.81;;;10.36;74.42
73748;BME280;62056;52.130;5.428;2023-03-14T00:49:24;99068.75;;;10.37;74.37
73748;BME280;62056;52.130;5.428;2023-03-14T00:51:51;99067.66;;;10.38;74.21
73748;BME280;62056;52.130;5.428;2023-03-14T00:54:19;99081.28;;;10.37;74.21
73748;BME280;62056;52.130;5.428;2023-03-14T00:56:45;99074.41;;;10.36;74.37
73748;BME280;62056;52.130;5.428;2023-03-14T00:59:12;99075.97;;;10.37;74.81
73748;BME280;62056;52.130;5.428;2023-03-14T01:01:39;99080.94;;;10.38;74.89
73748;BME280;62056;52.130;5.428;2023-03-14T01:04:06;99078.63;;;10.37;74.30
73748;BME280;62056;52.130;5.428;2023-03-14T01:06:33;99087.81;;;10.39;75.81
73748;BME280;62056;52.130;5.428;2023-03-14T01:09:00;99091.59;;;10.38;74.21
73748;BME280;62056;52.130;5.428;2023-03-14T01:11:32;99099.09;;;10.36;75.39
73748;BME280;62056;52.130;5.428;2023-03-14T01:14:00;99097.88;;;10.33;74.51
73748;BME280;62056;52.130;5.428;2023-03-14T01:16:29;99092.44;;;10.30;77.00
73748;BME280;62056;52.130;5.428;2023-03-14T01:18:56;99088.06;;;10.25;75.67
73748;BME280;62056;52.130;5.428;2023-03-14T01:21:25;99102.31;;;10.21;78.46
73748;BME280;62056;52.130;5.428;2023-03-14T01:23:54;99104.09;;;10.17;76.31
73748;BME280;62056;52.130;5.428;2023-03-14T01:26:23;99097.88;;;10.12;77.71
73748;BME280;62056;52.130;5.428;2023-03-14T01:28:52;99108.69;;;10.07;77.00
73748;BME280;62056;52.130;5.428;2023-03-14T01:31:19;99111.34;;;10.07;77.55
73748;BME280;62056;52.130;5.428;2023-03-14T01:33:46;99104.97;;;10.00;78.29
73748;BME280;62056;52.130;5.428;2023-03-14T01:36:14;99104.06;;;9.96;78.11
73748;BME280;62056;52.130;5.428;2023-03-14T01:38:41;99096.44;;;9.94;79.88
73748;BME280;62056;52.130;5.428;2023-03-14T01:41:13;99089.09;;;9.91;81.33
73748;BME280;62056;52.130;5.428;2023-03-14T01:43:40;99097.28;;;9.86;77.89
73748;BME280;62056;52.130;5.428;2023-03-14T01:48:43;99102.75;;;9.81;81.27
73748;BME280;62056;52.130;5.428;2023-03-14T01:51:15;99085.28;;;9.80;79.48
73748;BME280;62056;52.130;5.428;2023-03-14T01:53:44;99086.72;;;9.77;78.73
73748;BME280;62056;52.130;5.428;2023-03-14T01:56:13;99074.41;;;9.72;79.32
73748;BME280;62056;52.130;5.428;2023-03-14T01:58:44;99075.19;;;9.73;81.01
73748;BME280;62056;52.130;5.428;2023-03-14T02:01:16;99057.25;;;9.70;79.13
73748;BME280;62056;52.130;5.428;2023-03-14T02:03:50;99072.41;;;9.69;79.18
73748;BME280;62056;52.130;5.428;2023-03-14T02:06:23;99071.94;;;9.67;79.30
73748;BME280;62056;52.130;5.428;2023-03-14T02:08:51;99070.84;;;9.68;80.13
73748;BME280;62056;52.130;5.428;2023-03-14T02:11:18;99065.53;;;9.68;79.39
73748;BME280;62056;52.130;5.428;2023-03-14T02:13:45;99073.50;;;9.68;79.32
73748;BME280;62056;52.130;5.428;2023-03-14T02:16:12;99066.31;;;9.69;80.21
73748;BME280;62056;52.130;5.428;2023-03-14T02:18:39;99070.06;;;9.68;79.83
73748;BME280;62056;52.130;5.428;2023-03-14T02:21:15;99065.06;;;9.66;80.12
73748;BME280;62056;52.130;5.428;2023-03-14T02:24:08;99056.34;;;9.66;80.79
73748;BME280;62056;52.130;5.428;2023-03-14T02:26:43;99049.50;;;9.65;80.03
73748;BME280;62056;52.130;5.428;2023-03-14T02:29:11;99056.66;;;9.64;79.62
73748;BME280;62056;52.130;5.428;2023-03-14T02:31:38;99058.22;;;9.65;81.01
73748;BME280;62056;52.130;5.428;2023-03-14T02:34:05;99048.38;;;9.66;80.08
73748;BME280;62056;52.130;5.428;2023-03-14T02:36:32;99048.69;;;9.64;80.07
73748;BME280;62056;52.130;5.428;2023-03-14T02:39:10;99058.22;;;9.65;81.69
73748;BME280;62056;52.130;5.428;2023-03-14T02:41:40;99057.78;;;9.63;80.39
73748;BME280;62056;52.130;5.428;2023-03-14T02:44:08;99046.38;;;9.63;81.51
73748;BME280;62056;52.130;5.428;2023-03-14T02:46:35;99055.44;;;9.62;80.93
73748;BME280;62056;52.130;5.428;2023-03-14T02:49:03;99058.09;;;9.62;81.04
73748;BME280;62056;52.130;5.428;2023-03-14T02:51:31;99042.16;;;9.62;80.75
73748;BME280;62056;52.130;5.428;2023-03-14T02:53:59;99038.75;;;9.61;80.97
73748;BME280;62056;52.130;5.428;2023-03-14T02:56:25;99035.63;;;9.59;81.39
73748;BME280;62056;52.130;5.428;2023-03-14T02:58:52;99025.31;;;9.58;81.91
73748;BME280;62056;52.130;5.428;2023-03-14T03:01:18;99032.84;;;9.56;82.02
73748;BME280;62056;52.130;5.428;2023-03-14T03:03:45;99034.25;;;9.53;82.36
73748;BME280;62056;52.130;5.428;2023-03-14T03:06:12;99027.38;;;9.52;82.55
73748;BME280;62056;52.130;5.428;2023-03-14T03:08:38;99029.72;;;9.53;82.10
73748;BME280;62056;52.130;5.428;2023-03-14T03:11:05;99027.06;;;9.53;82.62
73748;BME280;62056;52.130;5.428;2023-03-14T03:13:32;99023.34;;;9.55;82.22
73748;BME280;62056;52.130;5.428;2023-03-14T03:15:59;99024.41;;;9.53;82.91
73748;BME280;62056;52.130;5.428;2023-03-14T03:18:25;99027.06;;;9.53;82.48
73748;BME280;62056;52.130;5.428;2023-03-14T03:20:52;99023.34;;;9.55;82.85
73748;BME280;62056;52.130;5.428;2023-03-14T03:23:19;99026.63;;;9.51;82.20
73748;BME280;62056;52.130;5.428;2023-03-14T03:25:49;99017.13;;;9.50;82.68
73748;BME280;62056;52.130;5.428;2023-03-14T03:28:18;99019.78;;;9.50;83.80
73748;BME280;62056;52.130;5.428;2023-03-14T03:30:44;99011.47;;;9.52;83.17
73748;BME280;62056;52.130;5.428;2023-03-14T03:33:12;99008.03;;;9.51;82.85
73748;BME280;62056;52.130;5.428;2023-03-14T03:35:43;99016.78;;;9.52;82.48
73748;BME280;62056;52.130;5.428;2023-03-14T03:38:11;99016.47;;;9.53;82.60
73748;BME280;62056;52.130;5.428;2023-03-14T03:40:38;99016.13;;;9.55;83.32
73748;BME280;62056;52.130;5.428;2023-03-14T03:43:05;99005.84;;;9.53;82.46
73748;BME280;62056;52.130;5.428;2023-03-14T03:45:31;99000.53;;;9.53;81.93
73748;BME280;62056;52.130;5.428;2023-03-14T03:47:58;98995.22;;;9.53;82.54
73748;BME280;62056;52.130;5.428;2023-03-14T03:50:24;98988.03;;;9.54;82.84
73748;BME280;62056;52.130;5.428;2023-03-14T03:52:51;98990.69;;;9.54;82.44
73748;BME280;62056;52.130;5.428;2023-03-14T03:55:17;98999.75;;;9.53;83.16
73748;BME280;62056;52.130;5.428;2023-03-14T03:57:44;98989.91;;;9.53;82.21
73748;BME280;62056;52.130;5.428;2023-03-14T04:00:11;99000.53;;;9.53;82.61
73748;BME280;62056;52.130;5.428;2023-03-14T04:02:39;98995.69;;;9.56;82.39
73748;BME280;62056;52.130;5.428;2023-03-14T04:05:06;98999.09;;;9.56;82.25
73748;BME280;62056;52.130;5.428;2023-03-14T04:07:33;98992.72;;;9.57;82.02
73748;BME280;62056;52.130;5.428;2023-03-14T04:09:59;98994.25;;;9.58;82.29
73748;BME280;62056;52.130;5.428;2023-03-14T04:12:26;99001.13;;;9.59;82.47
73748;BME280;62056;52.130;5.428;2023-03-14T04:14:53;98996.59;;;9.60;82.61
73748;BME280;62056;52.130;5.428;2023-03-14T04:17:19;99005.31;;;9.60;82.95
73748;BME280;62056;52.130;5.428;2023-03-14T04:19:48;99002.66;;;9.60;82.12
73748;BME280;62056;52.130;5.428;2023-03-14T04:22:17;99003.13;;;9.62;82.69
73748;BME280;62056;52.130;5.428;2023-03-14T04:24:44;99010.00;;;9.63;82.67
73748;BME280;62056;52.130;5.428;2023-03-14T04:27:10;99009.69;;;9.65;82.59
73748;BME280;62056;52.130;5.428;2023-03-14T04:29:37;99011.22;;;9.66;82.42
73748;BME280;62056;52.130;5.428;2023-03-14T04:32:04;99008.25;;;9.67;81.88
73748;BME280;62056;52.130;5.428;2023-03-14T04:34:31;99002.94;;;9.67;82.66
73748;BME280;62056;52.130;5.428;2023-03-14T04:36:57;99005.28;;;9.69;82.51
73748;BME280;62056;52.130;5.428;2023-03-14T04:39:24;98998.09;;;9.69;82.62
73748;BME280;62056;52.130;5.428;2023-03-14T04:41:50;98988.25;;;9.70;82.59
73748;BME280;62056;52.130;5.428;2023-03-14T04:44:17;98992.78;;;9.69;82.30
73748;BME280;62056;52.130;5.428;2023-03-14T04:46:44;98996.19;;;9.70;81.94
73748;BME280;62056;52.130;5.428;2023-03-14T04:49:10;98995.56;;;9.73;82.13
73748;BME280;62056;52.130;5.428;2023-03-14T04:51:37;98981.19;;;9.74;82.30
73748;BME280;62056;52.130;5.428;2023-03-14T04:54:03;98981.94;;;9.75;82.16
73748;BME280;62056;52.130;5.428;2023-03-14T04:56:31;98989.16;;;9.74;82.01
73748;BME280;62056;52.130;5.428;2023-03-14T04:58:57;98983.84;;;9.74;82.69
73748;BME280;62056;52.130;5.428;2023-03-14T05:01:24;98979.75;;;9.77;82.23
73748;BME280;62056;52.130;5.428;2023-03-14T05:03:50;98977.00;;;9.73;82.73
73748;BME280;62056;52.130;5.428;2023-03-14T05:06:17;98984.94;;;9.73;82.73
73748;BME280;62056;52.130;5.428;2023-03-14T05:08:43;98974.78;;;9.75;82.09
73748;BME280;62056;52.130;5.428;2023-03-14T05:11:11;98986.16;;;9.76;82.58
73748;BME280;62056;52.130;5.428;2023-03-14T05:13:39;98987.25;;;9.75;82.49
73748;BME280;62056;52.130;5.428;2023-03-14T05:16:07;98981.94;;;9.75;83.06
73748;BME280;62056;52.130;5.428;2023-03-14T05:18:35;98986.03;;;9.72;83.17
73748;BME280;62056;52.130;5.428;2023-03-14T05:21:03;98987.00;;;9.67;82.26
73748;BME280;62056;52.130;5.428;2023-03-14T05:23:30;98972.53;;;9.65;83.32
73748;BME280;62056;52.130;5.428;2023-03-14T05:25:57;98962.75;;;9.57;83.75
73748;BME280;62056;52.130;5.428;2023-03-14T05:28:24;98962.16;;;9.51;83.67
73748;BME280;62056;52.130;5.428;2023-03-14T05:30:50;98972.31;;;9.49;83.29
73748;BME280;62056;52.130;5.428;2023-03-14T05:33:17;98966.25;;;9.48;83.70
73748;BME280;62056;52.130;5.428;2023-03-14T05:35:44;98966.09;;;9.45;83.59
73748;BME280;62056;52.130;5.428;2023-03-14T05:38:10;98973.16;;;9.41;83.97
73748;BME280;62056;52.130;5.428;2023-03-14T05:40:37;98970.06;;;9.39;83.52
73748;BME280;62056;52.130;5.428;2023-03-14T05:43:03;98959.75;;;9.37;83.48
73748;BME280;62056;52.130;5.428;2023-03-14T05:45:30;98970.25;;;9.34;84.68
73748;BME280;62056;52.130;5.428;2023-03-14T05:47:59;98966.34;;;9.31;84.56
73748;BME280;62056;52.130;5.428;2023-03-14T05:50:26;98963.59;;;9.27;83.82
73748;BME280;62056;52.130;5.428;2023-03-14T05:52:53;98963.91;;;9.26;84.47
73748;BME280;62056;52.130;5.428;2023-03-14T05:55:19;98972.63;;;9.26;84.20
73748;BME280;62056;52.130;5.428;2023-03-14T05:57:46;98966.88;;;9.24;84.96
73748;BME280;62056;52.130;5.428;2023-03-14T06:00:13;98970.94;;;9.22;85.04
73748;BME280;62056;52.130;5.428;2023-03-14T06:02:40;98959.88;;;9.20;85.76
73748;BME280;62056;52.130;5.428;2023-03-14T06:05:07;98959.88;;;9.20;86.00
73748;BME280;62056;52.130;5.428;2023-03-14T06:07:34;98956.78;;;9.18;85.23
73748;BME280;62056;52.130;5.428;2023-03-14T06:10:00;98963.19;;;9.17;85.87
73748;BME280;62056;52.130;5.428;2023-03-14T06:12:27;98950.69;;;9.17;86.28
73748;BME280;62056;52.130;5.428;2023-03-14T06:14:54;98950.25;;;9.15;85.19
73748;BME280;62056;52.130;5.428;2023-03-14T06:17:21;98960.53;;;9.17;86.33
73748;BME280;62056;52.130;5.428;2023-03-14T06:19:48;98962.41;;;9.16;85.79
73748;BME280;62056;52.130;5.428;2023-03-14T06:22:14;98968.50;;;9.17;86.10
73748;BME280;62056;52.130;5.428;2023-03-14T06:24:41;98963.66;;;9.19;86.16
73748;BME280;62056;52.130;5.428;2023-03-14T06:27:07;98965.84;;;9.17;86.82
73748;BME280;62056;52.130;5.428;2023-03-14T06:29:34;98967.38;;;9.18;86.55
73748;BME280;62056;52.130;5.428;2023-03-14T06:32:00;98972.38;;;9.19;86.33
73748;BME280;62056;52.130;5.428;2023-03-14T06:34:27;98986.72;;;9.18;86.27
73748;BME280;62056;52.130;5.428;2023-03-14T06:36:53;98999.22;;;9.18;85.78
73748;BME280;62056;52.130;5.428;2023-03-14T06:39:20;99016.84;;;9.14;85.72
73748;BME280;62056;52.130;5.428;2023-03-14T06:41:46;99038.56;;;9.07;87.01
73748;BME280;62056;52.130;5.428;2023-03-14T06:44:13;99038.75;;;9.02;86.75
73748;BME280;62056;52.130;5.428;2023-03-14T06:46:40;99055.63;;;8.97;87.59
73748;BME280;62056;52.130;5.428;2023-03-14T06:49:06;99061.88;;;8.93;87.03
73748;BME280;62056;52.130;5.428;2023-03-14T06:51:33;99080.63;;;8.79;88.42
73748;BME280;62056;52.130;5.428;2023-03-14T06:54:00;99090.00;;;8.67;88.08
73748;BME280;62056;52.130;5.428;2023-03-14T06:56:27;99095.94;;;8.56;88.38
73748;BME280;62056;52.130;5.428;2023-03-14T06:58:54;99108.44;;;8.46;87.93
73748;BME280;62056;52.130;5.428;2023-03-14T07:01:24;99120.25;;;8.31;88.97
73748;BME280;62056;52.130;5.428;2023-03-14T07:03:52;99126.94;;;8.29;88.29
73748;BME280;62056;52.130;5.428;2023-03-14T07:06:18;99133.19;;;8.24;88.29
73748;BME280;62056;52.130;5.428;2023-03-14T07:08:45;99136.59;;;8.16;88.56
73748;BME280;62056;52.130;5.428;2023-03-14T07:11:12;99139.72;;;8.09;88.14
73748;BME280;62056;52.130;5.428;2023-03-14T07:13:39;99148.25;;;7.98;89.64
73748;BME280;62056;52.130;5.428;2023-03-14T07:16:06;99151.53;;;7.86;90.14
73748;BME280;62056;52.130;5.428;2023-03-14T07:18:33;99156.81;;;7.86;89.37
73748;BME280;62056;52.130;5.428;2023-03-14T07:21:00;99166.16;;;7.83;89.42
73748;BME280;62056;52.130;5.428;2023-03-14T07:23:26;99186.38;;;7.79;89.73
73748;BME280;62056;52.130;5.428;2023-03-14T07:25:53;99191.03;;;7.74;89.52
73748;BME280;62056;52.130;5.428;2023-03-14T07:28:20;99208.31;;;7.71;89.20
73748;BME280;62056;52.130;5.428;2023-03-14T07:30:47;99220.59;;;7.67;89.55
73748;BME280;62056;52.130;5.428;2023-03-14T07:33:14;99227.72;;;7.66;89.62
73748;BME280;62056;52.130;5.428;2023-03-14T07:35:41;99235.38;;;7.68;89.63
73748;BME280;62056;52.130;5.428;2023-03-14T07:38:08;99251.41;;;7.72;89.88
73748;BME280;62056;52.130;5.428;2023-03-14T07:40:34;99250.50;;;7.76;89.88
73748;BME280;62056;52.130;5.428;2023-03-14T07:43:01;99258.31;;;7.81;90.68
73748;BME280;62056;52.130;5.428;2023-03-14T07:45:28;99276.38;;;7.79;90.31
73748;BME280;62056;52.130;5.428;2023-03-14T07:47:54;99287.56;;;7.85;90.69
73748;BME280;62056;52.130;5.428;2023-03-14T07:50:25;99296.63;;;7.84;90.39
73748;BME280;62056;52.130;5.428;2023-03-14T07:52:52;99302.97;;;7.83;90.53
73748;BME280;62056;52.130;5.428;2023-03-14T07:55:19;99310.44;;;7.81;88.98
73748;BME280;62056;52.130;5.428;2023-03-14T07:57:45;99328.56;;;7.87;91.03
73748;BME280;62056;52.130;5.428;2023-03-14T08:00:12;99329.97;;;7.94;91.81
73748;BME280;62056;52.130;5.428;2023-03-14T08:02:41;99343.97;;;7.85;89.79
73748;BME280;62056;52.130;5.428;2023-03-14T08:05:08;99378.69;;;7.61;88.93
73748;BME280;62056;52.130;5.428;2023-03-14T08:07:35;99389.19;;;7.30;89.59
73748;BME280;62056;52.130;5.428;2023-03-14T08:10:03;99417.16;;;6.95;90.04
73748;BME280;62056;52.130;5.428;2023-03-14T08:12:30;99420.22;;;6.74;89.39
73748;BME280;62056;52.130;5.428;2023-03-14T08:14:57;99425.69;;;6.78;90.60
73748;BME280;62056;52.130;5.428;2023-03-14T08:17:26;99448.41;;;6.79;91.29
73748;BME280;62056;52.130;5.428;2023-03-14T08:19:54;99451.16;;;6.74;89.09
73748;BME280;62056;52.130;5.428;2023-03-14T08:22:55;99471.09;;;6.66;88.18
73748;BME280;62056;52.130;5.428;2023-03-14T08:25:21;99483.41;;;6.71;89.06
73748;BME280;62056;52.130;5.428;2023-03-14T08:27:48;99479.97;;;6.42;86.94
73748;BME280;62056;52.130;5.428;2023-03-14T08:30:16;99513.22;;;6.43;87.57
73748;BME280;62056;52.130;5.428;2023-03-14T08:32:43;99519.59;;;6.42;88.50
73748;BME280;62056;52.130;5.428;2023-03-14T08:35:11;99520.88;;;6.45;88.59
73748;BME280;62056;52.130;5.428;2023-03-14T08:37:38;99535.16;;;6.44;88.73
73748;BME280;62056;52.130;5.428;2023-03-14T08:40:06;99539.03;;;6.33;85.34
73748;BME280;62056;52.130;5.428;2023-03-14T08:42:33;99549.25;;;6.53;87.59
73748;BME280;62056;52.130;5.428;2023-03-14T08:45:00;99566.59;;;6.59;89.00
73748;BME280;62056;52.130;5.428;2023-03-14T08:47:27;99577.84;;;6.65;87.91
73748;BME280;62056;52.130;5.428;2023-03-14T08:49:54;99584.91;;;6.69;87.42
73748;BME280;62056;52.130;5.428;2023-03-14T08:52:20;99594.88;;;6.73;86.11
73748;BME280;62056;52.130;5.428;2023-03-14T08:54:47;99611.78;;;6.58;83.79
73748;BME280;62056;52.130;5.428;2023-03-14T08:57:14;99621.81;;;6.75;83.97
73748;BME280;62056;52.130;5.428;2023-03-14T08:59:42;99631.22;;;6.81;83.47
73748;BME280;62056;52.130;5.428;2023-03-14T09:02:10;99645.00;;;6.78;82.90
73748;BME280;62056;52.130;5.428;2023-03-14T09:04:39;99653.44;;;6.80;81.36
73748;BME280;62056;52.130;5.428;2023-03-14T09:07:08;99658.84;;;6.88;81.57
73748;BME280;62056;52.130;5.428;2023-03-14T09:09:41;99678.72;;;6.86;80.86
73748;BME280;62056;52.130;5.428;2023-03-14T09:12:30;99687.16;;;7.02;81.54
73748;BME280;62056;52.130;5.428;2023-03-14T09:14:57;99685.88;;;6.99;79.37
73748;BME280;62056;52.130;5.428;2023-03-14T09:17:24;99693.44;;;7.06;79.73
73748;BME280;62056;52.130;5.428;2023-03-14T09:19:51;99716.06;;;6.98;77.40
73748;BME280;62056;52.130;5.428;2023-03-14T09:22:17;99711.75;;;7.02;76.82
73748;BME280;62056;52.130;5.428;2023-03-14T09:24:44;99720.38;;;7.08;77.14
73748;BME280;62056;52.130;5.428;2023-03-14T09:27:10;99746.84;;;6.89;75.61
73748;BME280;62056;52.130;5.428;2023-03-14T09:29:37;99735.97;;;6.91;75.89
73748;BME280;62056;52.130;5.428;2023-03-14T09:32:03;99745.47;;;6.92;76.71
73748;BME280;62056;52.130;5.428;2023-03-14T09:34:30;99758.38;;;7.12;76.89
73748;BME280;62056;52.130;5.428;2023-03-14T09:36:57;99763.25;;;7.05;75.32
73748;BME280;62056;52.130;5.428;2023-03-14T09:39:24;99768.09;;;7.17;74.88
73748;BME280;62056;52.130;5.428;2023-03-14T09:41:51;99784.47;;;7.19;74.33
73748;BME280;62056;52.130;5.428;2023-03-14T09:44:33;99791.66;;;7.32;73.76
73748;BME280;62056;52.130;5.428;2023-03-14T09:47:05;99805.66;;;7.33;73.14
73748;BME280;62056;52.130;5.428;2023-03-14T09:49:41;99807.56;;;7.46;73.92
73748;BME280;62056;52.130;5.428;2023-03-14T09:52:15;99830.16;;;7.38;72.36
73748;BME280;62056;52.130;5.428;2023-03-14T09:54:52;99842.25;;;7.44;71.91
73748;BME280;62056;52.130;5.428;2023-03-14T09:57:23;99846.97;;;7.28;71.09
73748;BME280;62056;52.130;5.428;2023-03-14T09:59:54;99844.75;;;7.36;71.27
73748;BME280;62056;52.130;5.428;2023-03-14T10:02:27;99856.19;;;7.50;71.57
73748;BME280;62056;52.130;5.428;2023-03-14T10:04:55;99856.81;;;7.61;72.04
73748;BME280;62056;52.130;5.428;2023-03-14T10:07:28;99870.53;;;7.77;72.20
73748;BME280;62056;52.130;5.428;2023-03-14T10:09:56;99877.94;;;7.80;71.34
73748;BME280;62056;52.130;5.428;2023-03-14T10:12:33;99894.88;;;7.79;71.04
73748;BME280;62056;52.130;5.428;2023-03-14T10:15:11;99896.50;;;7.75;71.54
73748;BME280;62056;52.130;5.428;2023-03-14T10:17:48;99906.94;;;7.52;72.99
73748;BME280;62056;52.130;5.428;2023-03-14T10:20:33;99934.38;;;7.37;72.99
73748;BME280;62056;52.130;5.428;2023-03-14T10:25:33;99952.06;;;7.42;74.71
73748;BME280;62056;52.130;5.428;2023-03-14T10:28:02;99961.91;;;7.36;74.77
73748;BME280;62056;52.130;5.428;2023-03-14T10:33:12;99977.72;;;7.41;74.85
73748;BME280;62056;52.130;5.428;2023-03-14T10:35:52;99996.41;;;7.50;73.28
73748;BME280;62056;52.130;5.428;2023-03-14T10:38:23;99994.66;;;7.40;72.96
73748;BME280;62056;52.130;5.428;2023-03-14T10:40:52;99999.50;;;7.33;72.90
73748;BME280;62056;52.130;5.428;2023-03-14T10:43:23;100021.91;;;7.60;74.38
73748;BME280;62056;52.130;5.428;2023-03-14T10:45:57;100030.44;;;7.57;73.39
73748;BME280;62056;52.130;5.428;2023-03-14T10:48:29;100041.06;;;7.52;72.47
73748;BME280;62056;52.130;5.428;2023-03-14T10:51:07;100055.28;;;7.37;72.03
73748;BME280;62056;52.130;5.428;2023-03-14T10:56:25;100095.66;;;7.23;69.66
73748;BME280;62056;52.130;5.428;2023-03-14T10:58:56;100091.59;;;7.07;71.38
73748;BME280;62056;52.130;5.428;2023-03-14T11:06:43;100118.03;;;7.07;70.81
73748;BME280;62056;52.130;5.428;2023-03-14T11:09:21;100125.69;;;7.08;69.00
73748;BME280;62056;52.130;5.428;2023-03-14T11:11:49;100144.69;;;7.11;68.51
73748;BME280;62056;52.130;5.428;2023-03-14T11:14:18;100152.72;;;7.29;69.00
73748;BME280;62056;52.130;5.428;2023-03-14T11:16:57;100156.13;;;7.30;66.46
73748;BME280;62056;52.130;5.428;2023-03-14T11:19:42;100162.19;;;7.30;65.11
73748;BME280;62056;52.130;5.428;2023-03-14T11:30:51;100200.94;;;7.94;62.03
73748;BME280;62056;52.130;5.428;2023-03-14T11:33:22;100205.03;;;8.05;61.17
73748;BME280;62056;52.130;5.428;2023-03-14T11:36:04;100224.75;;;8.18;60.63
73748;BME280;62056;52.130;5.428;2023-03-14T11:38:46;100226.09;;;8.15;58.62
73748;BME280;62056;52.130;5.428;2023-03-14T11:43:49;100241.28;;;8.28;57.95
73748;BME280;62056;52.130;5.428;2023-03-14T11:46:26;100238.28;;;8.35;57.06
73748;BME280;62056;52.130;5.428;2023-03-14T11:49:11;100248.38;;;8.33;54.72
73748;BME280;62056;52.130;5.428;2023-03-14T11:51:44;100264.41;;;8.23;53.34
73748;BME280;62056;52.130;5.428;2023-03-14T11:54:25;100274.78;;;8.19;53.66
73748;BME280;62056;52.130;5.428;2023-03-14T11:57:01;100265.78;;;8.39;54.91
73748;BME280;62056;52.130;5.428;2023-03-14T12:05:32;100283.75;;;8.66;52.97
73748;BME280;62056;52.130;5.428;2023-03-14T12:10:40;100295.72;;;8.83;51.97
73748;BME280;62056;52.130;5.428;2023-03-14T12:13:12;100301.09;;;8.78;51.03
73748;BME280;62056;52.130;5.428;2023-03-14T12:15:47;100315.91;;;8.79;50.59
73748;BME280;62056;52.130;5.428;2023-03-14T12:18:33;100319.78;;;8.67;50.49
73748;BME280;62056;52.130;5.428;2023-03-14T12:21:03;100325.66;;;8.64;49.63
73748;BME280;62056;52.130;5.428;2023-03-14T12:23:44;100333.31;;;8.66;50.80
73748;BME280;62056;52.130;5.428;2023-03-14T12:28:42;100340.38;;;8.76;50.49
73748;BME280;62056;52.130;5.428;2023-03-14T12:34:32;100345.53;;;8.86;49.18
73748;BME280;62056;52.130;5.428;2023-03-14T12:39:56;100356.25;;;8.76;48.07
73748;BME280;62056;52.130;5.428;2023-03-14T12:45:28;100362.88;;;8.97;48.04
73748;BME280;62056;52.130;5.428;2023-03-14T12:48:11;100367.59;;;9.19;47.81
73748;BME280;62056;52.130;5.428;2023-03-14T12:50:44;100382.16;;;9.03;47.64
73748;BME280;62056;52.130;5.428;2023-03-14T12:55:55;100382.56;;;9.10;47.29
73748;BME280;62056;52.130;5.428;2023-03-14T12:58:43;100386.69;;;9.02;44.46
73748;BME280;62056;52.130;5.428;2023-03-14T13:01:19;100401.09;;;8.96;45.80
73748;BME280;62056;52.130;5.428;2023-03-14T13:03:52;100412.69;;;8.81;44.77
73748;BME280;62056;52.130;5.428;2023-03-14T13:06:46;100420.56;;;8.62;43.63
73748;BME280;62056;52.130;5.428;2023-03-14T13:12:00;100439.06;;;8.67;44.54
73748;BME280;62056;52.130;5.428;2023-03-14T13:14:29;100427.72;;;8.86;45.39
73748;BME280;62056;52.130;5.428;2023-03-14T13:17:00;100448.94;;;8.86;44.69
73748;BME280;62056;52.130;5.428;2023-03-14T13:19:56;100447.47;;;8.99;45.15
73748;BME280;62056;52.130;5.428;2023-03-14T13:22:27;100451.00;;;8.89;44.30
73748;BME280;62056;52.130;5.428;2023-03-14T13:25:06;100462.50;;;9.03;44.80
73748;BME280;62056;52.130;5.428;2023-03-14T13:27:34;100461.34;;;8.90;43.64
73748;BME280;62056;52.130;5.428;2023-03-14T13:30:20;100473.75;;;8.95;43.37
73748;BME280;62056;52.130;5.428;2023-03-14T13:32:48;100478.78;;;8.97;43.42
73748;BME280;62056;52.130;5.428;2023-03-14T13:35:20;100490.75;;;8.94;43.81
73748;BME280;62056;52.130;5.428;2023-03-14T13:37:51;100489.41;;;9.16;43.39
73748;BME280;62056;52.130;5.428;2023-03-14T13:40:34;100512.06;;;9.08;42.35
73748;BME280;62056;52.130;5.428;2023-03-14T13:43:11;100500.75;;;9.21;42.87
73748;BME280;62056;52.130;5.428;2023-03-14T13:45:53;100517.25;;;9.18;43.05
73748;BME280;62056;52.130;5.428;2023-03-14T13:48:22;100524.25;;;9.09;42.15
73748;BME280;62056;52.130;5.428;2023-03-14T13:50:54;100525.00;;;9.15;42.90
73748;BME280;62056;52.130;5.428;2023-03-14T13:53:23;100532.94;;;9.15;42.26
73748;BME280;62056;52.130;5.428;2023-03-14T13:55:51;100550.31;;;9.02;42.68
73748;BME280;62056;52.130;5.428;2023-03-14T13:58:22;100537.06;;;9.02;43.00
73748;BME280;62056;52.130;5.428;2023-03-14T14:00:57;100558.22;;;8.83;44.76
73748;BME280;62056;52.130;5.428;2023-03-14T14:03:25;100547.22;;;8.95;44.88
73748;BME280;62056;52.130;5.428;2023-03-14T14:05:55;100567.59;;;8.75;45.37
73748;BME280;62056;52.130;5.428;2023-03-14T14:08:23;100590.59;;;8.50;45.98
73748;BME280;62056;52.130;5.428;2023-03-14T14:10:55;100602.59;;;8.38;47.30